createdAt,value
2022-10-15T00:04:19.519Z,15.90
2022-10-15T00:06:46.879Z,15.90
2022-10-15T00:09:13.809Z,15.90
2022-10-15T00:11:40.792Z,15.90
2022-10-15T00:14:08.012Z,15.90
2022-10-15T00:16:35.250Z,15.90
2022-10-15T00:19:02.492Z,15.90
2022-10-15T00:26:35.442Z,16.00
2022-10-15T00:29:03.700Z,16.00
2022-10-15T00:31:32.584Z,16.00
2022-10-15T00:34:01.064Z,16.00
2022-10-15T00:36:30.780Z,16.00
2022-10-15T00:38:58.121Z,16.00
2022-10-15T00:41:29.639Z,16.00
2022-10-15T00:49:07.950Z,16.00
2022-10-15T00:51:42.390Z,16.00
2022-10-15T00:54:11.233Z,15.90
2022-10-15T00:56:39.920Z,16.10
2022-10-15T00:59:07.252Z,16.10
2022-10-15T01:01:34.579Z,16.00
2022-10-15T01:04:04.943Z,16.00
2022-10-15T01:11:52.951Z,15.90
2022-10-15T01:14:36.499Z,16.10
2022-10-15T01:17:09.622Z,16.00
2022-10-15T01:20:04.532Z,16.00
2022-10-15T01:22:46.830Z,16.00
2022-10-15T01:25:29.622Z,15.90
2022-10-15T01:28:23.994Z,15.90
2022-10-15T01:36:06.407Z,16.00
2022-10-15T01:38:46.893Z,16.00
2022-10-15T01:41:19.446Z,16.10
2022-10-15T01:43:53.213Z,16.10
2022-10-15T01:46:27.544Z,16.20
2022-10-15T01:48:59.180Z,16.10
2022-10-15T01:51:31.389Z,16.00
2022-10-15T02:09:07.921Z,16.00
2022-10-15T02:11:48.411Z,16.10
2022-10-15T02:14:22.633Z,16.00
2022-10-15T02:16:58.996Z,16.00
2022-10-15T02:19:32.580Z,16.10
2022-10-15T02:22:06.553Z,16.00
2022-10-15T02:27:14.927Z,16.00
2022-10-15T02:29:45.030Z,16.00
2022-10-15T02:32:13.818Z,15.90
2022-10-15T02:34:41.575Z,16.00
2022-10-15T02:37:13.119Z,16.00
2022-10-15T02:39:40.828Z,16.00
2022-10-15T02:42:08.796Z,16.00
2022-10-15T02:47:19.729Z,16.00
2022-10-15T02:49:48.239Z,16.10
2022-10-15T02:52:15.559Z,16.10
2022-10-15T02:54:42.918Z,16.10
2022-10-15T02:57:13.759Z,16.10
2022-10-15T02:59:41.860Z,16.10
2022-10-15T03:02:09.309Z,16.20
2022-10-15T03:09:14.814Z,16.00
2022-10-15T03:11:42.125Z,15.90
2022-10-15T03:14:09.197Z,16.30
2022-10-15T03:16:36.437Z,16.40
2022-10-15T03:19:03.663Z,16.60
2022-10-15T03:21:32.703Z,16.50
2022-10-15T03:24:01.764Z,16.50
2022-10-15T03:30:51.435Z,16.30
2022-10-15T03:33:20.855Z,16.50
2022-10-15T03:35:51.359Z,16.20
2022-10-15T03:38:18.576Z,15.80
2022-10-15T03:40:45.951Z,15.80
2022-10-15T03:43:13.278Z,15.90
2022-10-15T03:45:40.866Z,15.80
2022-10-15T04:05:42.845Z,15.20
2022-10-15T04:08:10.275Z,15.30
2022-10-15T04:10:38.135Z,15.40
2022-10-15T04:13:05.343Z,15.30
2022-10-15T04:15:32.758Z,15.30
2022-10-15T04:18:00.514Z,15.20
2022-10-15T04:20:28.505Z,15.30
2022-10-15T04:25:36.976Z,15.20
2022-10-15T04:28:05.096Z,15.40
2022-10-15T04:30:32.838Z,15.00
2022-10-15T04:33:00.115Z,15.00
2022-10-15T04:35:31.826Z,15.10
2022-10-15T04:37:59.153Z,15.10
2022-10-15T04:40:27.127Z,15.20
2022-10-15T04:42:55.815Z,15.10
2022-10-15T04:50:30.006Z,15.00
2022-10-15T04:52:57.355Z,14.80
2022-10-15T04:55:25.156Z,14.70
2022-10-15T04:57:54.825Z,14.90
2022-10-15T05:00:24.323Z,14.90
2022-10-15T05:02:56.578Z,14.70
2022-10-15T05:05:23.944Z,14.50
2022-10-15T05:07:52.358Z,14.50
2022-10-15T05:15:29.910Z,15.00
2022-10-15T05:17:57.665Z,14.90
2022-10-15T05:20:25.266Z,15.10
2022-10-15T05:22:53.837Z,15.40
2022-10-15T05:25:21.574Z,15.40
2022-10-15T05:27:49.269Z,15.20
2022-10-15T05:30:17.093Z,15.00
2022-10-15T06:27:17.440Z,16.00
2022-10-15T08:27:04.747Z,16.10
2022-10-15T08:29:32.204Z,16.00
2022-10-15T08:31:59.871Z,16.10
2022-10-15T08:34:27.711Z,16.00
2022-10-15T08:36:55.135Z,16.00
2022-10-15T08:39:22.664Z,16.10
2022-10-15T08:41:56.217Z,16.00
2022-10-15T08:44:46.687Z,16.10
2022-10-15T08:52:23.759Z,16.30
2022-10-15T08:54:56.079Z,16.40
2022-10-15T08:57:37.152Z,16.20
2022-10-15T09:00:25.476Z,16.20
2022-10-15T09:03:03.075Z,16.10
2022-10-15T09:05:40.513Z,16.10
2022-10-15T09:08:19.166Z,16.10
2022-10-15T09:15:57.599Z,16.40
2022-10-15T09:18:30.069Z,16.40
2022-10-15T09:21:02.234Z,16.50
2022-10-15T09:23:30.030Z,16.50
2022-10-15T09:26:07.348Z,16.60
2022-10-15T09:28:44.171Z,16.60
2022-10-15T09:31:18.424Z,16.60
2022-10-15T09:39:04.413Z,16.90
2022-10-15T09:41:48.245Z,16.90
2022-10-15T09:44:21.139Z,17.00
2022-10-15T09:46:54.748Z,17.00
2022-10-15T09:49:28.545Z,16.90
2022-10-15T09:52:07.224Z,17.00
2022-10-15T09:54:43.573Z,17.10
2022-10-15T09:57:14.006Z,17.20
2022-10-15T10:04:52.486Z,17.30
2022-10-15T10:07:32.559Z,17.30
2022-10-15T10:10:05.608Z,17.10
2022-10-15T10:12:38.433Z,17.30
2022-10-15T10:15:27.229Z,17.30
2022-10-15T10:17:59.688Z,17.30
2022-10-15T10:20:33.845Z,17.30
2022-10-15T10:28:27.989Z,17.30
2022-10-15T10:31:09.416Z,17.40
2022-10-15T10:33:44.495Z,17.40
2022-10-15T10:36:23.906Z,17.40
2022-10-15T10:39:03.475Z,17.50
2022-10-15T10:41:53.336Z,17.40
2022-10-15T10:44:37.905Z,17.40
2022-10-15T10:49:50.075Z,17.60
2022-10-15T10:52:28.331Z,17.90
2022-10-15T10:55:01.563Z,18.00
2022-10-15T10:57:44.453Z,17.90
2022-10-15T11:00:16.762Z,17.60
2022-10-15T11:02:44.821Z,17.70
2022-10-15T11:05:14.105Z,17.80
2022-10-15T11:13:06.167Z,17.90
2022-10-15T11:15:44.536Z,17.80
2022-10-15T11:18:29.626Z,17.70
2022-10-15T11:21:12.679Z,17.70
2022-10-15T11:23:57.708Z,17.80
2022-10-15T11:26:52.147Z,17.90
2022-10-15T11:29:36.254Z,18.10
2022-10-15T11:37:26.914Z,17.70
2022-10-15T11:40:17.669Z,17.80
2022-10-15T11:42:54.565Z,18.10
2022-10-15T11:45:48.114Z,18.20
2022-10-15T11:48:26.736Z,18.20
2022-10-15T11:51:00.686Z,18.20
2022-10-15T11:53:50.474Z,18.10
2022-10-15T12:01:25.048Z,18.30
2022-10-15T12:03:57.791Z,18.30
2022-10-15T12:06:37.947Z,18.20
2022-10-15T12:09:06.874Z,18.40
2022-10-15T12:11:46.466Z,18.30
2022-10-15T12:14:30.137Z,18.30
2022-10-15T12:17:05.155Z,18.30
2022-10-15T12:24:59.657Z,18.30
2022-10-15T12:27:40.573Z,18.10
2022-10-15T12:30:26.506Z,18.10
2022-10-15T12:32:56.754Z,18.30
2022-10-15T12:35:35.428Z,18.30
2022-10-15T12:38:22.056Z,18.40
2022-10-15T12:41:01.025Z,18.30
2022-10-15T12:48:46.317Z,18.10
2022-10-15T12:51:41.996Z,18.00
2022-10-15T12:54:37.792Z,18.20
2022-10-15T12:57:45.916Z,18.10
2022-10-15T13:00:32.590Z,18.20
2022-10-15T13:03:25.350Z,18.40
2022-10-15T13:05:58.114Z,18.50
2022-10-15T13:13:39.313Z,18.40
2022-10-15T13:16:16.336Z,18.60
2022-10-15T13:18:52.785Z,18.70
2022-10-15T13:21:20.395Z,18.60
2022-10-15T13:23:48.746Z,18.50
2022-10-15T13:26:22.664Z,18.50
2022-10-15T13:29:04.591Z,18.60
2022-10-15T13:34:43.756Z,18.50
2022-10-15T13:37:19.979Z,18.50
2022-10-15T13:39:53.593Z,18.50
2022-10-15T13:42:24.295Z,18.50
2022-10-15T13:45:02.187Z,18.60
2022-10-15T13:47:36.484Z,18.50
2022-10-15T13:50:27.973Z,18.30
2022-10-15T13:58:34.762Z,18.50
2022-10-15T14:01:11.835Z,18.40
2022-10-15T14:03:50.341Z,18.50
2022-10-15T14:06:21.522Z,18.40
2022-10-15T14:08:53.803Z,18.30
2022-10-15T14:11:24.436Z,18.30
2022-10-15T14:13:59.433Z,18.40
2022-10-15T14:22:28.594Z,18.30
2022-10-15T14:25:03.073Z,18.70
2022-10-15T14:27:34.556Z,18.60
2022-10-15T14:30:21.007Z,18.60
2022-10-15T14:33:02.465Z,18.80
2022-10-15T14:35:39.805Z,18.90
2022-10-15T14:46:18.243Z,18.60
2022-10-15T14:48:49.396Z,18.80
2022-10-15T14:51:25.677Z,18.80
2022-10-15T14:53:56.124Z,18.80
2022-10-15T14:56:31.404Z,18.80
2022-10-15T14:59:02.075Z,18.80
2022-10-15T15:01:50.876Z,18.90
2022-10-15T15:09:30.328Z,19.00
2022-10-15T15:11:58.846Z,18.80
2022-10-15T15:14:30.865Z,18.90
2022-10-15T15:17:03.335Z,18.80
2022-10-15T15:19:33.750Z,18.70
2022-10-15T15:22:09.597Z,18.80
2022-10-15T15:24:43.220Z,18.90
2022-10-15T15:32:28.801Z,19.00
2022-10-15T15:34:59.835Z,18.60
2022-10-15T15:37:31.564Z,18.60
2022-10-15T15:40:01.725Z,18.50
2022-10-15T15:42:32.297Z,18.40
2022-10-15T15:45:01.286Z,18.40
2022-10-15T15:47:34.640Z,18.40
2022-10-15T15:55:18.974Z,18.30
2022-10-15T15:57:47.847Z,18.20
2022-10-15T16:00:20.125Z,18.30
2022-10-15T16:02:51.178Z,18.40
2022-10-15T16:05:20.801Z,18.40
2022-10-15T16:07:49.963Z,18.40
2022-10-15T16:10:20.453Z,18.50
2022-10-15T16:18:25.244Z,18.50
2022-10-15T16:20:53.185Z,18.40
2022-10-15T16:23:23.567Z,18.30
2022-10-15T16:25:54.369Z,18.20
2022-10-15T16:28:30.570Z,18.20
2022-10-15T16:31:17.879Z,18.00
2022-10-15T16:33:49.095Z,18.00
2022-10-15T16:41:03.494Z,18.10
2022-10-15T16:43:36.855Z,18.20
2022-10-15T16:46:08.795Z,18.20
2022-10-15T16:48:38.685Z,18.20
2022-10-15T16:51:12.931Z,18.10
2022-10-15T16:53:46.333Z,18.10
2022-10-15T16:56:19.891Z,17.90
2022-10-15T17:06:09.570Z,17.70
2022-10-15T17:08:51.252Z,17.80
2022-10-15T17:11:41.752Z,17.80
2022-10-15T17:14:15.493Z,17.90
2022-10-15T17:16:46.346Z,17.80
2022-10-15T17:19:34.175Z,17.80
2022-10-15T17:22:15.107Z,17.80
2022-10-15T17:24:54.689Z,17.60
2022-10-15T17:30:05.007Z,17.80
2022-10-15T17:32:36.074Z,17.80
2022-10-15T17:35:04.881Z,17.80
2022-10-15T17:40:07.924Z,17.80
2022-10-15T17:42:38.354Z,17.80
2022-10-15T17:45:13.573Z,17.80
2022-10-15T17:47:42.283Z,17.80
2022-10-15T17:55:54.991Z,17.90
2022-10-15T17:58:23.156Z,17.80
2022-10-15T18:00:54.846Z,17.70
2022-10-15T18:03:24.587Z,17.60
2022-10-15T18:05:55.378Z,17.80
2022-10-15T18:08:29.494Z,17.70
2022-10-15T18:11:01.133Z,17.90
2022-10-15T18:18:39.804Z,18.00
2022-10-15T18:21:19.706Z,17.90
2022-10-15T18:23:51.878Z,18.10
2022-10-15T18:26:27.553Z,18.00
2022-10-15T18:29:00.569Z,18.10
2022-10-15T18:31:34.845Z,18.10
2022-10-15T18:34:10.082Z,18.00
2022-10-15T18:36:45.195Z,18.00
2022-10-15T18:44:23.026Z,17.90
2022-10-15T18:46:54.128Z,17.70
2022-10-15T18:49:22.146Z,17.60
2022-10-15T18:51:54.606Z,17.60
2022-10-15T18:54:26.196Z,17.60
2022-10-15T18:56:54.151Z,17.60
2022-10-15T18:59:27.622Z,17.70
2022-10-15T19:07:06.156Z,17.50
2022-10-15T19:09:44.115Z,17.60
2022-10-15T19:12:12.156Z,17.50
2022-10-15T19:14:43.796Z,17.30
2022-10-15T19:17:12.928Z,17.40
2022-10-15T19:19:41.906Z,17.50
2022-10-15T19:22:16.552Z,17.80
2022-10-15T19:24:51.760Z,17.70
2022-10-15T19:32:15.514Z,17.80
2022-10-15T19:34:46.116Z,17.90
2022-10-15T19:37:20.577Z,17.90
2022-10-15T19:39:48.875Z,17.90
2022-10-15T19:42:18.455Z,17.80
2022-10-15T19:44:49.612Z,17.90
2022-10-15T19:47:21.895Z,17.70
2022-10-15T19:54:54.337Z,17.70
2022-10-15T19:57:24.096Z,17.60
2022-10-15T19:59:53.779Z,17.40
2022-10-15T20:02:23.806Z,17.50
2022-10-15T20:04:56.686Z,17.40
2022-10-15T20:07:25.525Z,17.40
2022-10-15T20:10:01.595Z,17.40
2022-10-15T20:17:40.966Z,17.50
2022-10-15T20:20:09.197Z,17.40
2022-10-15T20:22:38.035Z,17.50
2022-10-15T20:25:10.512Z,17.50
2022-10-15T20:27:41.309Z,17.40
2022-10-15T20:30:11.010Z,17.40
2022-10-15T20:32:41.542Z,17.40
2022-10-15T20:40:22.144Z,17.50
2022-10-15T20:42:50.384Z,17.40
2022-10-15T20:45:19.352Z,17.40
2022-10-15T20:47:55.393Z,17.40
2022-10-15T20:50:27.255Z,17.40
2022-10-15T20:52:57.405Z,17.40
2022-10-15T20:55:27.411Z,17.40
2022-10-15T21:03:02.973Z,17.30
2022-10-15T21:05:30.686Z,17.20
2022-10-15T21:07:59.175Z,17.30
2022-10-15T21:10:29.553Z,17.40
2022-10-15T21:12:57.903Z,17.20
2022-10-15T21:15:26.031Z,17.10
2022-10-15T21:17:53.386Z,17.20
2022-10-15T21:25:26.426Z,17.00
2022-10-15T21:27:58.856Z,17.00
2022-10-15T21:30:27.093Z,17.00
2022-10-15T21:32:55.877Z,17.10
2022-10-15T21:35:23.788Z,17.20
2022-10-15T21:37:52.286Z,17.30
2022-10-15T21:40:22.234Z,17.40
2022-10-15T21:42:53.235Z,17.40
2022-10-15T21:52:46.564Z,17.30
2022-10-15T21:55:13.882Z,17.20
2022-10-15T21:57:44.507Z,17.20
2022-10-15T22:00:15.318Z,17.20
2022-10-15T22:02:43.024Z,17.00
2022-10-15T22:05:10.214Z,17.10
2022-10-15T22:07:39.681Z,17.20
2022-10-15T22:15:13.305Z,17.20
2022-10-15T22:17:40.547Z,17.20
2022-10-15T22:20:12.668Z,17.10
2022-10-15T22:22:41.115Z,17.10
2022-10-15T22:25:11.194Z,17.00
2022-10-15T22:27:38.915Z,17.00
2022-10-15T22:30:07.822Z,17.00
2022-10-15T22:32:36.024Z,17.10
2022-10-15T22:40:08.954Z,17.10
2022-10-15T22:42:38.663Z,17.20
2022-10-15T22:45:08.245Z,17.30
2022-10-15T22:47:35.887Z,17.30
2022-10-15T22:50:03.706Z,17.30
2022-10-15T22:52:35.672Z,17.20
2022-10-15T22:55:03.969Z,17.20
2022-10-15T22:57:38.152Z,17.30
2022-10-15T23:05:11.453Z,17.20
2022-10-15T23:07:39.215Z,17.00
2022-10-15T23:10:08.646Z,17.00
2022-10-15T23:12:37.447Z,17.00
2022-10-15T23:15:05.906Z,16.90
2022-10-15T23:17:33.950Z,16.90
2022-10-15T23:20:01.360Z,16.90
2022-10-15T23:22:30.065Z,16.80
2022-10-15T23:40:28.541Z,16.90
2022-10-15T23:42:59.263Z,16.70
2022-10-15T23:45:27.953Z,16.80
2022-10-15T23:47:56.255Z,17.00
2022-10-15T23:50:24.284Z,16.90
2022-10-15T23:52:53.858Z,16.80
2022-10-15T23:55:24.733Z,16.90
